KDTO

Denton Enterprise Airport

Denton, Texas, USA
METAR KDTO 151853Z 35012KT 10SM CLR 18/09 A2970 RMK AO2 SLP053 T01780089
Observed Flight Rules
Feb-15 @ 18:53 UTC (12 minutes ago) Visual Flight Rules
Wind Visibility Clouds
350° at 12 knots 10 miles
  • Clear skies
Temperatures Readings
Current 18°C / 64°F
Dewpoint 9°C / 48°F
Humidity 56%
Altimeter 29.7" Hg
Pressure 1005.3 hPa
Elevation 196
METAR KDTO 151853Z 35012KT 10SM CLR 18/09 A2970 RMK AO2 SLP053 T01780089
Observed Flight Rules
Feb-15 @ 18:53 UTC
(12 minutes ago)
VFR
Wind Visibility
350° at 12 knots 10 miles
Clouds
  • Clear skies
Temperature Dewpoint
18°C / 64°F 9°C / 48°F
Humidity Altimeter Pressure
56% 29.7" Hg 1005.3 hPa